sensor_id;sensor_type;location;lat;lon;timestamp;P1;durP1;ratioP1;P2;durP2;ratioP2
49854;SDS011;35752;52.164;21.244;2022-07-31T00:00:22;6.63;;;4.07;;
49854;SDS011;35752;52.164;21.244;2022-07-31T00:02:48;5.70;;;3.72;;
49854;SDS011;35752;52.164;21.244;2022-07-31T00:05:15;5.80;;;3.65;;
49854;SDS011;35752;52.164;21.244;2022-07-31T00:07:40;7.28;;;4.03;;
49854;SDS011;35752;52.164;21.244;2022-07-31T00:10:07;7.38;;;3.85;;
49854;SDS011;35752;52.164;21.244;2022-07-31T00:12:33;5.50;;;3.80;;
49854;SDS011;35752;52.164;21.244;2022-07-31T00:14:59;6.43;;;4.28;;
49854;SDS011;35752;52.164;21.244;2022-07-31T00:17:26;8.48;;;4.38;;
49854;SDS011;35752;52.164;21.244;2022-07-31T00:19:52;6.55;;;4.13;;
49854;SDS011;35752;52.164;21.244;2022-07-31T00:22:18;8.70;;;4.28;;
49854;SDS011;35752;52.164;21.244;2022-07-31T00:24:43;5.00;;;3.90;;
49854;SDS011;35752;52.164;21.244;2022-07-31T00:27:09;5.50;;;3.88;;
49854;SDS011;35752;52.164;21.244;2022-07-31T00:29:35;6.15;;;3.83;;
49854;SDS011;35752;52.164;21.244;2022-07-31T00:32:02;5.68;;;3.78;;
49854;SDS011;35752;52.164;21.244;2022-07-31T00:34:27;9.20;;;4.45;;
49854;SDS011;35752;52.164;21.244;2022-07-31T00:36:53;12.98;;;4.55;;
49854;SDS011;35752;52.164;21.244;2022-07-31T00:39:19;7.70;;;4.18;;
49854;SDS011;35752;52.164;21.244;2022-07-31T00:41:45;10.10;;;4.63;;
49854;SDS011;35752;52.164;21.244;2022-07-31T00:44:11;5.95;;;4.40;;
49854;SDS011;35752;52.164;21.244;2022-07-31T00:46:37;5.20;;;4.47;;
49854;SDS011;35752;52.164;21.244;2022-07-31T00:49:04;7.47;;;4.22;;
49854;SDS011;35752;52.164;21.244;2022-07-31T00:51:36;8.93;;;4.68;;
49854;SDS011;35752;52.164;21.244;2022-07-31T00:54:03;6.40;;;4.40;;
49854;SDS011;35752;52.164;21.244;2022-07-31T00:56:33;8.27;;;4.70;;
49854;SDS011;35752;52.164;21.244;2022-07-31T00:58:59;6.47;;;4.45;;
49854;SDS011;35752;52.164;21.244;2022-07-31T01:01:24;6.10;;;4.40;;
49854;SDS011;35752;52.164;21.244;2022-07-31T01:03:51;8.48;;;4.47;;
49854;SDS011;35752;52.164;21.244;2022-07-31T01:06:18;5.97;;;4.30;;
49854;SDS011;35752;52.164;21.244;2022-07-31T01:08:44;6.65;;;4.28;;
49854;SDS011;35752;52.164;21.244;2022-07-31T01:13:50;7.93;;;4.95;;
49854;SDS011;35752;52.164;21.244;2022-07-31T01:16:20;6.88;;;5.18;;
49854;SDS011;35752;52.164;21.244;2022-07-31T01:18:48;21.10;;;5.70;;
49854;SDS011;35752;52.164;21.244;2022-07-31T01:21:20;5.20;;;4.65;;
49854;SDS011;35752;52.164;21.244;2022-07-31T01:24:10;6.57;;;4.50;;
49854;SDS011;35752;52.164;21.244;2022-07-31T01:26:40;7.25;;;4.10;;
49854;SDS011;35752;52.164;21.244;2022-07-31T01:29:27;6.30;;;4.15;;
49854;SDS011;35752;52.164;21.244;2022-07-31T01:34:30;6.65;;;4.13;;
49854;SDS011;35752;52.164;21.244;2022-07-31T01:37:11;5.43;;;3.70;;
49854;SDS011;35752;52.164;21.244;2022-07-31T01:39:39;9.57;;;4.05;;
49854;SDS011;35752;52.164;21.244;2022-07-31T01:42:07;6.93;;;3.90;;
49854;SDS011;35752;52.164;21.244;2022-07-31T01:44:39;6.57;;;3.70;;
49854;SDS011;35752;52.164;21.244;2022-07-31T01:47:09;7.95;;;3.92;;
49854;SDS011;35752;52.164;21.244;2022-07-31T01:49:38;5.13;;;3.80;;
49854;SDS011;35752;52.164;21.244;2022-07-31T01:52:05;6.75;;;3.78;;
49854;SDS011;35752;52.164;21.244;2022-07-31T01:54:33;4.55;;;3.75;;
49854;SDS011;35752;52.164;21.244;2022-07-31T01:57:01;6.45;;;4.10;;
49854;SDS011;35752;52.164;21.244;2022-07-31T01:59:28;11.10;;;4.20;;
49854;SDS011;35752;52.164;21.244;2022-07-31T02:01:55;6.65;;;3.97;;
49854;SDS011;35752;52.164;21.244;2022-07-31T02:04:22;9.05;;;4.68;;
49854;SDS011;35752;52.164;21.244;2022-07-31T02:06:49;4.85;;;3.83;;
49854;SDS011;35752;52.164;21.244;2022-07-31T02:09:16;9.05;;;4.65;;
49854;SDS011;35752;52.164;21.244;2022-07-31T02:11:44;7.03;;;4.45;;
49854;SDS011;35752;52.164;21.244;2022-07-31T02:14:11;5.10;;;3.67;;
49854;SDS011;35752;52.164;21.244;2022-07-31T02:16:40;7.15;;;4.38;;
49854;SDS011;35752;52.164;21.244;2022-07-31T02:19:06;6.10;;;3.88;;
49854;SDS011;35752;52.164;21.244;2022-07-31T02:21:34;5.35;;;3.85;;
49854;SDS011;35752;52.164;21.244;2022-07-31T02:24:00;7.82;;;4.13;;
49854;SDS011;35752;52.164;21.244;2022-07-31T02:26:26;4.30;;;3.83;;
49854;SDS011;35752;52.164;21.244;2022-07-31T02:28:54;6.47;;;4.85;;
49854;SDS011;35752;52.164;21.244;2022-07-31T02:31:20;9.50;;;4.63;;
49854;SDS011;35752;52.164;21.244;2022-07-31T02:33:48;6.50;;;4.13;;
49854;SDS011;35752;52.164;21.244;2022-07-31T02:36:15;4.88;;;3.75;;
49854;SDS011;35752;52.164;21.244;2022-07-31T02:38:44;7.63;;;4.18;;
49854;SDS011;35752;52.164;21.244;2022-07-31T02:41:12;5.38;;;3.75;;
49854;SDS011;35752;52.164;21.244;2022-07-31T02:43:59;9.05;;;4.20;;
49854;SDS011;35752;52.164;21.244;2022-07-31T02:46:25;8.38;;;3.90;;
49854;SDS011;35752;52.164;21.244;2022-07-31T02:48:54;4.82;;;4.18;;
49854;SDS011;35752;52.164;21.244;2022-07-31T02:51:23;6.93;;;3.95;;
49854;SDS011;35752;52.164;21.244;2022-07-31T02:53:55;7.32;;;4.13;;
49854;SDS011;35752;52.164;21.244;2022-07-31T02:56:41;6.95;;;4.07;;
49854;SDS011;35752;52.164;21.244;2022-07-31T02:59:09;8.25;;;3.95;;
49854;SDS011;35752;52.164;21.244;2022-07-31T03:01:51;5.93;;;3.53;;
49854;SDS011;35752;52.164;21.244;2022-07-31T03:04:33;7.32;;;4.28;;
49854;SDS011;35752;52.164;21.244;2022-07-31T03:06:59;5.47;;;3.80;;
49854;SDS011;35752;52.164;21.244;2022-07-31T03:09:25;8.20;;;3.85;;
49854;SDS011;35752;52.164;21.244;2022-07-31T03:11:52;9.68;;;4.60;;
49854;SDS011;35752;52.164;21.244;2022-07-31T03:14:17;10.02;;;4.15;;
49854;SDS011;35752;52.164;21.244;2022-07-31T03:16:45;7.05;;;3.88;;
49854;SDS011;35752;52.164;21.244;2022-07-31T03:19:12;6.22;;;3.95;;
49854;SDS011;35752;52.164;21.244;2022-07-31T03:21:39;7.43;;;3.72;;
49854;SDS011;35752;52.164;21.244;2022-07-31T03:24:05;7.65;;;3.85;;
49854;SDS011;35752;52.164;21.244;2022-07-31T03:26:32;7.22;;;4.22;;
49854;SDS011;35752;52.164;21.244;2022-07-31T03:28:58;8.32;;;3.88;;
49854;SDS011;35752;52.164;21.244;2022-07-31T03:31:24;4.95;;;4.10;;
49854;SDS011;35752;52.164;21.244;2022-07-31T03:33:50;6.03;;;4.32;;
49854;SDS011;35752;52.164;21.244;2022-07-31T03:36:16;7.10;;;3.72;;
49854;SDS011;35752;52.164;21.244;2022-07-31T03:38:42;7.28;;;4.07;;
49854;SDS011;35752;52.164;21.244;2022-07-31T03:41:08;6.90;;;3.83;;
49854;SDS011;35752;52.164;21.244;2022-07-31T03:43:34;5.60;;;3.88;;
49854;SDS011;35752;52.164;21.244;2022-07-31T03:46:01;8.05;;;4.13;;
49854;SDS011;35752;52.164;21.244;2022-07-31T03:48:28;6.22;;;3.97;;
49854;SDS011;35752;52.164;21.244;2022-07-31T03:50:55;8.38;;;3.80;;
49854;SDS011;35752;52.164;21.244;2022-07-31T03:53:21;6.55;;;4.35;;
49854;SDS011;35752;52.164;21.244;2022-07-31T03:55:47;6.50;;;4.45;;
49854;SDS011;35752;52.164;21.244;2022-07-31T03:58:13;5.28;;;4.30;;
49854;SDS011;35752;52.164;21.244;2022-07-31T04:00:39;4.28;;;3.83;;
49854;SDS011;35752;52.164;21.244;2022-07-31T04:03:08;6.25;;;4.40;;
49854;SDS011;35752;52.164;21.244;2022-07-31T04:05:35;7.93;;;4.40;;
49854;SDS011;35752;52.164;21.244;2022-07-31T04:08:01;7.65;;;4.35;;
49854;SDS011;35752;52.164;21.244;2022-07-31T04:10:27;7.90;;;4.50;;
49854;SDS011;35752;52.164;21.244;2022-07-31T04:12:53;5.22;;;3.97;;
49854;SDS011;35752;52.164;21.244;2022-07-31T04:15:18;5.13;;;4.57;;
49854;SDS011;35752;52.164;21.244;2022-07-31T04:17:44;6.07;;;4.28;;
49854;SDS011;35752;52.164;21.244;2022-07-31T04:20:10;5.00;;;4.05;;
49854;SDS011;35752;52.164;21.244;2022-07-31T04:22:36;6.32;;;4.20;;
49854;SDS011;35752;52.164;21.244;2022-07-31T04:25:03;8.13;;;3.95;;
49854;SDS011;35752;52.164;21.244;2022-07-31T04:27:29;5.95;;;3.83;;
49854;SDS011;35752;52.164;21.244;2022-07-31T04:29:55;4.10;;;3.70;;
49854;SDS011;35752;52.164;21.244;2022-07-31T04:32:21;6.90;;;3.97;;
49854;SDS011;35752;52.164;21.244;2022-07-31T04:34:48;4.15;;;3.20;;
49854;SDS011;35752;52.164;21.244;2022-07-31T04:37:14;5.07;;;3.70;;
49854;SDS011;35752;52.164;21.244;2022-07-31T04:39:41;4.95;;;4.07;;
49854;SDS011;35752;52.164;21.244;2022-07-31T04:42:07;3.50;;;3.20;;
49854;SDS011;35752;52.164;21.244;2022-07-31T04:44:33;3.80;;;2.85;;
49854;SDS011;35752;52.164;21.244;2022-07-31T04:47:00;6.13;;;3.25;;
49854;SDS011;35752;52.164;21.244;2022-07-31T04:49:27;3.30;;;2.85;;
49854;SDS011;35752;52.164;21.244;2022-07-31T04:51:54;6.00;;;3.95;;
49854;SDS011;35752;52.164;21.244;2022-07-31T04:54:21;5.07;;;3.00;;
49854;SDS011;35752;52.164;21.244;2022-07-31T04:56:48;2.92;;;2.70;;
49854;SDS011;35752;52.164;21.244;2022-07-31T04:59:14;2.83;;;2.63;;
49854;SDS011;35752;52.164;21.244;2022-07-31T05:01:42;8.30;;;3.45;;
49854;SDS011;35752;52.164;21.244;2022-07-31T05:04:08;3.45;;;2.88;;
49854;SDS011;35752;52.164;21.244;2022-07-31T05:06:38;3.13;;;2.83;;
49854;SDS011;35752;52.164;21.244;2022-07-31T05:09:05;5.90;;;2.75;;
49854;SDS011;35752;52.164;21.244;2022-07-31T05:11:32;3.88;;;2.53;;
49854;SDS011;35752;52.164;21.244;2022-07-31T05:13:59;4.55;;;2.65;;
49854;SDS011;35752;52.164;21.244;2022-07-31T05:16:27;3.85;;;2.75;;
49854;SDS011;35752;52.164;21.244;2022-07-31T05:18:54;2.97;;;2.65;;
49854;SDS011;35752;52.164;21.244;2022-07-31T05:21:20;3.78;;;2.33;;
49854;SDS011;35752;52.164;21.244;2022-07-31T05:23:46;5.88;;;2.85;;
49854;SDS011;35752;52.164;21.244;2022-07-31T05:26:13;3.80;;;2.45;;
49854;SDS011;35752;52.164;21.244;2022-07-31T05:28:40;3.55;;;2.40;;
49854;SDS011;35752;52.164;21.244;2022-07-31T05:31:07;2.75;;;2.55;;
49854;SDS011;35752;52.164;21.244;2022-07-31T05:33:33;3.08;;;2.67;;
49854;SDS011;35752;52.164;21.244;2022-07-31T05:35:59;4.30;;;2.35;;
49854;SDS011;35752;52.164;21.244;2022-07-31T05:38:25;4.25;;;2.95;;
49854;SDS011;35752;52.164;21.244;2022-07-31T05:40:52;7.50;;;3.20;;
49854;SDS011;35752;52.164;21.244;2022-07-31T05:43:18;4.15;;;2.80;;
49854;SDS011;35752;52.164;21.244;2022-07-31T05:45:44;3.33;;;2.22;;
49854;SDS011;35752;52.164;21.244;2022-07-31T05:48:13;5.13;;;3.03;;
49854;SDS011;35752;52.164;21.244;2022-07-31T05:50:43;6.50;;;2.88;;
49854;SDS011;35752;52.164;21.244;2022-07-31T05:53:10;4.28;;;2.90;;
49854;SDS011;35752;52.164;21.244;2022-07-31T05:55:39;3.53;;;2.65;;
49854;SDS011;35752;52.164;21.244;2022-07-31T05:58:05;9.52;;;7.75;;
49854;SDS011;35752;52.164;21.244;2022-07-31T06:00:32;3.40;;;3.10;;
49854;SDS011;35752;52.164;21.244;2022-07-31T06:02:58;2.55;;;2.22;;
49854;SDS011;35752;52.164;21.244;2022-07-31T06:05:24;2.15;;;1.92;;
49854;SDS011;35752;52.164;21.244;2022-07-31T06:07:51;5.82;;;5.20;;
49854;SDS011;35752;52.164;21.244;2022-07-31T06:10:16;3.00;;;1.80;;
49854;SDS011;35752;52.164;21.244;2022-07-31T06:12:42;2.45;;;2.25;;
49854;SDS011;35752;52.164;21.244;2022-07-31T06:15:08;4.30;;;1.35;;
49854;SDS011;35752;52.164;21.244;2022-07-31T06:17:34;1.80;;;1.70;;
49854;SDS011;35752;52.164;21.244;2022-07-31T06:20:02;2.13;;;1.77;;
49854;SDS011;35752;52.164;21.244;2022-07-31T06:22:28;2.67;;;2.35;;
49854;SDS011;35752;52.164;21.244;2022-07-31T06:24:54;2.13;;;1.80;;
49854;SDS011;35752;52.164;21.244;2022-07-31T06:27:20;2.55;;;2.15;;
49854;SDS011;35752;52.164;21.244;2022-07-31T06:29:46;2.03;;;1.75;;
49854;SDS011;35752;52.164;21.244;2022-07-31T06:32:12;4.35;;;2.95;;
49854;SDS011;35752;52.164;21.244;2022-07-31T06:34:38;3.40;;;3.08;;
49854;SDS011;35752;52.164;21.244;2022-07-31T06:37:04;3.47;;;3.17;;
49854;SDS011;35752;52.164;21.244;2022-07-31T06:39:30;2.47;;;1.73;;
49854;SDS011;35752;52.164;21.244;2022-07-31T06:41:56;1.73;;;1.63;;
49854;SDS011;35752;52.164;21.244;2022-07-31T06:44:21;2.88;;;1.75;;
49854;SDS011;35752;52.164;21.244;2022-07-31T06:46:47;3.80;;;2.70;;
49854;SDS011;35752;52.164;21.244;2022-07-31T06:49:14;2.90;;;2.25;;
49854;SDS011;35752;52.164;21.244;2022-07-31T06:51:40;5.05;;;2.20;;
49854;SDS011;35752;52.164;21.244;2022-07-31T06:54:07;1.75;;;1.65;;
49854;SDS011;35752;52.164;21.244;2022-07-31T06:56:35;2.97;;;2.20;;
49854;SDS011;35752;52.164;21.244;2022-07-31T06:59:02;3.05;;;1.92;;
49854;SDS011;35752;52.164;21.244;2022-07-31T07:01:29;3.17;;;2.70;;
49854;SDS011;35752;52.164;21.244;2022-07-31T07:03:54;3.80;;;2.95;;
49854;SDS011;35752;52.164;21.244;2022-07-31T07:06:20;2.75;;;2.50;;
49854;SDS011;35752;52.164;21.244;2022-07-31T07:08:46;5.15;;;3.38;;
49854;SDS011;35752;52.164;21.244;2022-07-31T07:11:12;2.58;;;2.35;;
49854;SDS011;35752;52.164;21.244;2022-07-31T07:13:38;2.50;;;2.30;;
49854;SDS011;35752;52.164;21.244;2022-07-31T07:16:04;3.38;;;3.08;;
49854;SDS011;35752;52.164;21.244;2022-07-31T07:18:30;2.90;;;2.70;;
49854;SDS011;35752;52.164;21.244;2022-07-31T07:20:56;3.00;;;2.70;;
49854;SDS011;35752;52.164;21.244;2022-07-31T07:23:22;3.50;;;2.95;;
49854;SDS011;35752;52.164;21.244;2022-07-31T07:25:48;2.80;;;2.50;;
49854;SDS011;35752;52.164;21.244;2022-07-31T07:28:14;3.38;;;3.13;;
49854;SDS011;35752;52.164;21.244;2022-07-31T07:30:42;3.25;;;2.92;;
49854;SDS011;35752;52.164;21.244;2022-07-31T07:33:07;4.00;;;3.10;;
49854;SDS011;35752;52.164;21.244;2022-07-31T07:35:33;3.40;;;3.10;;
49854;SDS011;35752;52.164;21.244;2022-07-31T07:38:00;3.80;;;3.50;;
49854;SDS011;35752;52.164;21.244;2022-07-31T07:40:26;3.75;;;3.45;;
49854;SDS011;35752;52.164;21.244;2022-07-31T07:42:52;3.90;;;3.60;;
49854;SDS011;35752;52.164;21.244;2022-07-31T07:45:18;4.72;;;4.32;;
49854;SDS011;35752;52.164;21.244;2022-07-31T07:47:43;4.13;;;3.83;;
49854;SDS011;35752;52.164;21.244;2022-07-31T07:50:09;3.78;;;3.47;;
49854;SDS011;35752;52.164;21.244;2022-07-31T07:52:36;4.75;;;4.32;;
49854;SDS011;35752;52.164;21.244;2022-07-31T07:55:03;4.15;;;3.75;;
49854;SDS011;35752;52.164;21.244;2022-07-31T07:57:30;4.47;;;4.07;;
49854;SDS011;35752;52.164;21.244;2022-07-31T07:59:59;6.03;;;3.88;;
49854;SDS011;35752;52.164;21.244;2022-07-31T08:02:30;4.85;;;4.45;;
49854;SDS011;35752;52.164;21.244;2022-07-31T08:04:56;4.60;;;4.20;;
49854;SDS011;35752;52.164;21.244;2022-07-31T08:07:32;4.53;;;4.13;;
49854;SDS011;35752;52.164;21.244;2022-07-31T08:10:00;5.57;;;5.05;;
49854;SDS011;35752;52.164;21.244;2022-07-31T08:12:26;4.68;;;4.30;;
49854;SDS011;35752;52.164;21.244;2022-07-31T08:14:52;5.75;;;5.20;;
49854;SDS011;35752;52.164;21.244;2022-07-31T08:17:18;5.05;;;4.63;;
49854;SDS011;35752;52.164;21.244;2022-07-31T08:19:44;5.55;;;5.05;;
49854;SDS011;35752;52.164;21.244;2022-07-31T08:22:09;5.63;;;5.10;;
49854;SDS011;35752;52.164;21.244;2022-07-31T08:24:36;5.25;;;4.82;;
49854;SDS011;35752;52.164;21.244;2022-07-31T08:27:01;7.30;;;5.05;;
49854;SDS011;35752;52.164;21.244;2022-07-31T08:29:45;4.53;;;4.13;;
49854;SDS011;35752;52.164;21.244;2022-07-31T08:32:11;5.03;;;4.63;;
49854;SDS011;35752;52.164;21.244;2022-07-31T08:34:37;4.25;;;3.85;;
49854;SDS011;35752;52.164;21.244;2022-07-31T08:37:04;4.57;;;4.18;;
49854;SDS011;35752;52.164;21.244;2022-07-31T08:39:33;5.07;;;3.80;;
49854;SDS011;35752;52.164;21.244;2022-07-31T08:42:06;4.00;;;3.70;;
49854;SDS011;35752;52.164;21.244;2022-07-31T08:44:37;3.88;;;3.58;;
49854;SDS011;35752;52.164;21.244;2022-07-31T08:47:07;4.00;;;3.30;;
49854;SDS011;35752;52.164;21.244;2022-07-31T08:49:38;3.35;;;3.00;;
49854;SDS011;35752;52.164;21.244;2022-07-31T08:52:08;5.68;;;3.47;;
49854;SDS011;35752;52.164;21.244;2022-07-31T08:54:34;3.47;;;3.20;;
49854;SDS011;35752;52.164;21.244;2022-07-31T08:57:01;3.65;;;2.50;;
49854;SDS011;35752;52.164;21.244;2022-07-31T08:59:28;3.00;;;2.60;;
49854;SDS011;35752;52.164;21.244;2022-07-31T09:01:54;3.30;;;2.72;;
49854;SDS011;35752;52.164;21.244;2022-07-31T09:04:24;2.60;;;2.33;;
49854;SDS011;35752;52.164;21.244;2022-07-31T09:06:49;3.75;;;2.90;;
49854;SDS011;35752;52.164;21.244;2022-07-31T09:09:15;2.58;;;2.38;;
49854;SDS011;35752;52.164;21.244;2022-07-31T09:11:45;2.28;;;2.03;;
49854;SDS011;35752;52.164;21.244;2022-07-31T09:14:11;3.28;;;2.60;;
49854;SDS011;35752;52.164;21.244;2022-07-31T09:16:45;2.88;;;2.30;;
49854;SDS011;35752;52.164;21.244;2022-07-31T09:19:14;3.28;;;2.53;;
49854;SDS011;35752;52.164;21.244;2022-07-31T09:21:40;2.80;;;2.60;;
49854;SDS011;35752;52.164;21.244;2022-07-31T09:24:07;4.18;;;2.45;;
49854;SDS011;35752;52.164;21.244;2022-07-31T09:26:35;2.80;;;2.60;;
49854;SDS011;35752;52.164;21.244;2022-07-31T09:29:02;2.28;;;1.98;;
49854;SDS011;35752;52.164;21.244;2022-07-31T09:31:33;2.33;;;1.92;;
49854;SDS011;35752;52.164;21.244;2022-07-31T09:33:59;2.50;;;1.75;;
49854;SDS011;35752;52.164;21.244;2022-07-31T09:36:25;3.42;;;1.90;;
49854;SDS011;35752;52.164;21.244;2022-07-31T09:38:51;2.58;;;2.15;;
49854;SDS011;35752;52.164;21.244;2022-07-31T09:41:20;1.85;;;1.75;;
49854;SDS011;35752;52.164;21.244;2022-07-31T09:43:56;3.17;;;1.60;;
49854;SDS011;35752;52.164;21.244;2022-07-31T09:46:41;2.10;;;1.90;;
49854;SDS011;35752;52.164;21.244;2022-07-31T09:49:09;3.13;;;1.92;;
49854;SDS011;35752;52.164;21.244;2022-07-31T09:51:42;3.60;;;1.98;;
49854;SDS011;35752;52.164;21.244;2022-07-31T09:54:19;2.25;;;2.05;;
49854;SDS011;35752;52.164;21.244;2022-07-31T09:56:46;2.53;;;2.33;;
49854;SDS011;35752;52.164;21.244;2022-07-31T09:59:13;3.70;;;2.13;;
49854;SDS011;35752;52.164;21.244;2022-07-31T10:01:39;3.15;;;2.47;;
49854;SDS011;35752;52.164;21.244;2022-07-31T10:04:06;2.97;;;2.67;;
49854;SDS011;35752;52.164;21.244;2022-07-31T10:06:33;2.80;;;2.53;;
49854;SDS011;35752;52.164;21.244;2022-07-31T10:09:01;3.38;;;2.85;;
49854;SDS011;35752;52.164;21.244;2022-07-31T10:11:29;5.32;;;2.55;;
49854;SDS011;35752;52.164;21.244;2022-07-31T10:14:00;2.67;;;2.08;;
49854;SDS011;35752;52.164;21.244;2022-07-31T10:18:58;1.92;;;1.80;;
49854;SDS011;35752;52.164;21.244;2022-07-31T10:21:26;5.25;;;2.60;;
49854;SDS011;35752;52.164;21.244;2022-07-31T10:23:58;2.53;;;2.15;;
49854;SDS011;35752;52.164;21.244;2022-07-31T10:26:27;3.10;;;2.13;;
49854;SDS011;35752;52.164;21.244;2022-07-31T10:28:53;4.68;;;2.45;;
49854;SDS011;35752;52.164;21.244;2022-07-31T10:31:20;3.45;;;2.22;;
49854;SDS011;35752;52.164;21.244;2022-07-31T10:33:45;3.05;;;2.10;;
49854;SDS011;35752;52.164;21.244;2022-07-31T10:36:21;2.05;;;1.75;;
49854;SDS011;35752;52.164;21.244;2022-07-31T10:44:29;2.63;;;2.40;;
49854;SDS011;35752;52.164;21.244;2022-07-31T10:47:14;2.97;;;2.30;;
49854;SDS011;35752;52.164;21.244;2022-07-31T10:49:45;3.65;;;2.55;;
49854;SDS011;35752;52.164;21.244;2022-07-31T10:52:13;2.30;;;2.10;;
49854;SDS011;35752;52.164;21.244;2022-07-31T10:54:52;2.20;;;1.90;;
49854;SDS011;35752;52.164;21.244;2022-07-31T10:57:26;3.15;;;1.95;;
49854;SDS011;35752;52.164;21.244;2022-07-31T10:59:55;5.97;;;3.03;;
49854;SDS011;35752;52.164;21.244;2022-07-31T11:05:35;3.00;;;2.50;;
49854;SDS011;35752;52.164;21.244;2022-07-31T11:08:03;7.30;;;2.72;;
49854;SDS011;35752;52.164;21.244;2022-07-31T11:10:31;3.22;;;2.20;;
49854;SDS011;35752;52.164;21.244;2022-07-31T11:13:06;3.10;;;2.40;;
49854;SDS011;35752;52.164;21.244;2022-07-31T11:15:33;2.25;;;2.05;;
49854;SDS011;35752;52.164;21.244;2022-07-31T11:18:13;4.30;;;3.13;;
49854;SDS011;35752;52.164;21.244;2022-07-31T11:20:40;2.70;;;2.40;;
49854;SDS011;35752;52.164;21.244;2022-07-31T11:23:15;3.75;;;3.20;;
49854;SDS011;35752;52.164;21.244;2022-07-31T11:25:45;3.17;;;2.87;;
49854;SDS011;35752;52.164;21.244;2022-07-31T11:36:20;4.88;;;3.47;;
49854;SDS011;35752;52.164;21.244;2022-07-31T11:38:52;5.95;;;3.50;;
49854;SDS011;35752;52.164;21.244;2022-07-31T11:41:26;3.33;;;3.00;;
49854;SDS011;35752;52.164;21.244;2022-07-31T11:43:53;3.30;;;2.50;;
49854;SDS011;35752;52.164;21.244;2022-07-31T11:46:24;3.85;;;3.55;;
49854;SDS011;35752;52.164;21.244;2022-07-31T11:48:52;2.63;;;2.42;;
49854;SDS011;35752;52.164;21.244;2022-07-31T11:51:19;3.58;;;2.20;;
49854;SDS011;35752;52.164;21.244;2022-07-31T11:53:45;3.30;;;2.75;;
49854;SDS011;35752;52.164;21.244;2022-07-31T11:56:12;3.17;;;2.88;;
49854;SDS011;35752;52.164;21.244;2022-07-31T11:58:59;3.65;;;3.20;;
49854;SDS011;35752;52.164;21.244;2022-07-31T12:01:26;3.60;;;2.83;;
49854;SDS011;35752;52.164;21.244;2022-07-31T12:03:53;3.90;;;3.25;;
49854;SDS011;35752;52.164;21.244;2022-07-31T12:06:20;4.05;;;3.65;;
49854;SDS011;35752;52.164;21.244;2022-07-31T12:08:46;3.75;;;2.85;;
49854;SDS011;35752;52.164;21.244;2022-07-31T12:11:13;4.15;;;3.10;;
49854;SDS011;35752;52.164;21.244;2022-07-31T12:13:43;3.45;;;3.15;;
49854;SDS011;35752;52.164;21.244;2022-07-31T12:16:11;3.85;;;3.20;;
49854;SDS011;35752;52.164;21.244;2022-07-31T12:18:53;3.42;;;3.13;;
49854;SDS011;35752;52.164;21.244;2022-07-31T12:21:32;3.63;;;3.33;;
49854;SDS011;35752;52.164;21.244;2022-07-31T12:24:00;4.90;;;3.78;;
49854;SDS011;35752;52.164;21.244;2022-07-31T12:26:27;4.75;;;3.75;;
49854;SDS011;35752;52.164;21.244;2022-07-31T12:31:44;6.18;;;5.05;;
49854;SDS011;35752;52.164;21.244;2022-07-31T12:34:27;4.95;;;4.40;;
49854;SDS011;35752;52.164;21.244;2022-07-31T12:39:22;5.53;;;5.03;;
49854;SDS011;35752;52.164;21.244;2022-07-31T12:41:48;4.70;;;4.15;;
49854;SDS011;35752;52.164;21.244;2022-07-31T12:44:14;5.78;;;4.90;;
49854;SDS011;35752;52.164;21.244;2022-07-31T12:46:39;5.57;;;5.07;;
49854;SDS011;35752;52.164;21.244;2022-07-31T12:49:05;6.78;;;5.35;;
49854;SDS011;35752;52.164;21.244;2022-07-31T12:51:32;6.15;;;5.55;;
49854;SDS011;35752;52.164;21.244;2022-07-31T12:53:58;6.75;;;5.50;;
49854;SDS011;35752;52.164;21.244;2022-07-31T12:56:27;6.65;;;5.40;;
49854;SDS011;35752;52.164;21.244;2022-07-31T12:58:53;7.18;;;5.40;;
49854;SDS011;35752;52.164;21.244;2022-07-31T13:01:18;8.68;;;5.05;;
49854;SDS011;35752;52.164;21.244;2022-07-31T13:03:44;9.20;;;5.40;;
49854;SDS011;35752;52.164;21.244;2022-07-31T13:06:11;7.05;;;5.55;;
49854;SDS011;35752;52.164;21.244;2022-07-31T13:08:37;6.53;;;5.93;;
49854;SDS011;35752;52.164;21.244;2022-07-31T13:11:03;6.40;;;5.80;;
49854;SDS011;35752;52.164;21.244;2022-07-31T13:13:28;5.47;;;4.97;;
49854;SDS011;35752;52.164;21.244;2022-07-31T13:15:54;7.20;;;6.18;;
49854;SDS011;35752;52.164;21.244;2022-07-31T13:18:20;6.07;;;5.57;;
49854;SDS011;35752;52.164;21.244;2022-07-31T13:20:45;6.75;;;5.75;;
49854;SDS011;35752;52.164;21.244;2022-07-31T13:23:11;6.90;;;6.20;;
49854;SDS011;35752;52.164;21.244;2022-07-31T13:25:37;8.55;;;6.05;;
49854;SDS011;35752;52.164;21.244;2022-07-31T13:28:02;7.70;;;6.80;;
49854;SDS011;35752;52.164;21.244;2022-07-31T13:30:28;6.93;;;6.28;;
49854;SDS011;35752;52.164;21.244;2022-07-31T13:32:54;8.43;;;7.13;;
49854;SDS011;35752;52.164;21.244;2022-07-31T13:35:20;11.05;;;7.53;;
49854;SDS011;35752;52.164;21.244;2022-07-31T13:37:50;8.45;;;6.50;;
49854;SDS011;35752;52.164;21.244;2022-07-31T13:40:16;8.15;;;7.32;;
49854;SDS011;35752;52.164;21.244;2022-07-31T13:42:43;8.85;;;6.80;;
49854;SDS011;35752;52.164;21.244;2022-07-31T13:45:09;8.18;;;7.00;;
49854;SDS011;35752;52.164;21.244;2022-07-31T13:47:35;7.80;;;6.47;;
49854;SDS011;35752;52.164;21.244;2022-07-31T13:50:01;8.63;;;7.28;;
49854;SDS011;35752;52.164;21.244;2022-07-31T13:52:26;7.65;;;6.82;;
49854;SDS011;35752;52.164;21.244;2022-07-31T13:54:52;9.75;;;7.35;;
49854;SDS011;35752;52.164;21.244;2022-07-31T13:57:18;8.52;;;6.60;;
49854;SDS011;35752;52.164;21.244;2022-07-31T13:59:43;9.48;;;7.30;;
49854;SDS011;35752;52.164;21.244;2022-07-31T14:02:09;8.35;;;7.45;;
49854;SDS011;35752;52.164;21.244;2022-07-31T14:04:35;10.70;;;7.95;;
49854;SDS011;35752;52.164;21.244;2022-07-31T14:07:00;8.18;;;7.32;;
49854;SDS011;35752;52.164;21.244;2022-07-31T14:09:26;10.32;;;7.90;;
49854;SDS011;35752;52.164;21.244;2022-07-31T14:11:52;12.18;;;7.68;;
49854;SDS011;35752;52.164;21.244;2022-07-31T14:14:17;9.85;;;7.40;;
49854;SDS011;35752;52.164;21.244;2022-07-31T14:16:43;8.07;;;6.95;;
49854;SDS011;35752;52.164;21.244;2022-07-31T14:19:09;9.02;;;7.20;;
49854;SDS011;35752;52.164;21.244;2022-07-31T14:21:35;9.88;;;7.57;;
49854;SDS011;35752;52.164;21.244;2022-07-31T14:24:00;11.20;;;7.82;;
49854;SDS011;35752;52.164;21.244;2022-07-31T14:26:26;8.45;;;7.38;;
49854;SDS011;35752;52.164;21.244;2022-07-31T14:28:52;11.45;;;8.50;;
49854;SDS011;35752;52.164;21.244;2022-07-31T14:31:17;9.35;;;7.95;;
49854;SDS011;35752;52.164;21.244;2022-07-31T14:33:43;11.63;;;8.98;;
49854;SDS011;35752;52.164;21.244;2022-07-31T14:36:09;9.20;;;7.03;;
49854;SDS011;35752;52.164;21.244;2022-07-31T14:38:35;9.73;;;7.50;;
49854;SDS011;35752;52.164;21.244;2022-07-31T14:41:00;11.13;;;7.35;;
49854;SDS011;35752;52.164;21.244;2022-07-31T14:43:27;8.68;;;6.68;;
49854;SDS011;35752;52.164;21.244;2022-07-31T14:45:54;8.02;;;6.50;;
49854;SDS011;35752;52.164;21.244;2022-07-31T14:48:20;7.88;;;5.95;;
49854;SDS011;35752;52.164;21.244;2022-07-31T14:50:46;9.85;;;6.05;;
49854;SDS011;35752;52.164;21.244;2022-07-31T14:53:11;8.23;;;5.75;;
49854;SDS011;35752;52.164;21.244;2022-07-31T14:55:37;5.47;;;4.07;;
49854;SDS011;35752;52.164;21.244;2022-07-31T14:58:03;7.55;;;4.88;;
49854;SDS011;35752;52.164;21.244;2022-07-31T15:00:28;5.47;;;4.60;;
49854;SDS011;35752;52.164;21.244;2022-07-31T15:02:54;5.78;;;3.40;;
49854;SDS011;35752;52.164;21.244;2022-07-31T15:05:20;6.32;;;4.10;;